sensor_id;sensor_type;location;lat;lon;timestamp;temperature;humidity
480;DHT22;226;48.606;9.096;2023-04-16T00:00:19;7.60;77.60
480;DHT22;226;48.606;9.096;2023-04-16T00:02:48;7.60;77.40
480;DHT22;226;48.606;9.096;2023-04-16T00:05:16;7.60;75.80
480;DHT22;226;48.606;9.096;2023-04-16T00:07:44;7.60;75.40
480;DHT22;226;48.606;9.096;2023-04-16T00:10:13;7.60;77.00
480;DHT22;226;48.606;9.096;2023-04-16T00:12:43;7.60;77.90
480;DHT22;226;48.606;9.096;2023-04-16T00:15:11;7.60;77.40
480;DHT22;226;48.606;9.096;2023-04-16T00:17:39;7.60;77.90
480;DHT22;226;48.606;9.096;2023-04-16T00:20:08;7.60;76.70
480;DHT22;226;48.606;9.096;2023-04-16T00:22:38;7.60;77.20
480;DHT22;226;48.606;9.096;2023-04-16T00:25:06;7.60;77.90
480;DHT22;226;48.606;9.096;2023-04-16T00:27:34;7.60;75.70
480;DHT22;226;48.606;9.096;2023-04-16T00:30:05;7.60;78.00
480;DHT22;226;48.606;9.096;2023-04-16T00:32:34;7.60;77.50
480;DHT22;226;48.606;9.096;2023-04-16T00:35:02;7.60;78.00
480;DHT22;226;48.606;9.096;2023-04-16T00:37:30;7.60;78.60
480;DHT22;226;48.606;9.096;2023-04-16T00:39:58;7.60;78.30
480;DHT22;226;48.606;9.096;2023-04-16T00:42:26;7.60;77.80
480;DHT22;226;48.606;9.096;2023-04-16T00:44:54;7.60;78.10
480;DHT22;226;48.606;9.096;2023-04-16T00:47:24;7.60;77.40
480;DHT22;226;48.606;9.096;2023-04-16T00:49:53;7.70;77.70
480;DHT22;226;48.606;9.096;2023-04-16T00:52:22;7.70;77.50
480;DHT22;226;48.606;9.096;2023-04-16T00:54:50;7.70;77.20
480;DHT22;226;48.606;9.096;2023-04-16T00:57:18;7.70;77.50
480;DHT22;226;48.606;9.096;2023-04-16T00:59:49;7.70;75.10
480;DHT22;226;48.606;9.096;2023-04-16T01:02:18;7.70;76.30
480;DHT22;226;48.606;9.096;2023-04-16T01:04:47;7.70;76.10
480;DHT22;226;48.606;9.096;2023-04-16T01:07:16;7.70;76.50
480;DHT22;226;48.606;9.096;2023-04-16T01:09:44;7.70;77.50
480;DHT22;226;48.606;9.096;2023-04-16T01:12:12;7.60;76.20
480;DHT22;226;48.606;9.096;2023-04-16T01:14:40;7.60;77.20
480;DHT22;226;48.606;9.096;2023-04-16T01:17:08;7.60;75.50
480;DHT22;226;48.606;9.096;2023-04-16T01:19:36;7.60;76.60
480;DHT22;226;48.606;9.096;2023-04-16T01:22:06;7.60;77.00
480;DHT22;226;48.606;9.096;2023-04-16T01:24:34;7.60;76.30
480;DHT22;226;48.606;9.096;2023-04-16T01:27:02;7.60;76.50
480;DHT22;226;48.606;9.096;2023-04-16T01:29:30;7.50;77.00
480;DHT22;226;48.606;9.096;2023-04-16T01:31:58;7.50;77.40
480;DHT22;226;48.606;9.096;2023-04-16T01:34:26;7.60;78.00
480;DHT22;226;48.606;9.096;2023-04-16T01:36:55;7.60;76.60
480;DHT22;226;48.606;9.096;2023-04-16T01:39:24;7.50;76.80
480;DHT22;226;48.606;9.096;2023-04-16T01:41:53;7.50;77.30
480;DHT22;226;48.606;9.096;2023-04-16T01:44:21;7.60;77.60
480;DHT22;226;48.606;9.096;2023-04-16T01:46:49;7.60;77.40
480;DHT22;226;48.606;9.096;2023-04-16T01:49:17;7.60;77.00
480;DHT22;226;48.606;9.096;2023-04-16T01:51:45;7.50;76.50
480;DHT22;226;48.606;9.096;2023-04-16T01:54:13;7.50;77.30
480;DHT22;226;48.606;9.096;2023-04-16T01:56:43;7.50;78.90
480;DHT22;226;48.606;9.096;2023-04-16T01:59:11;7.40;79.20
480;DHT22;226;48.606;9.096;2023-04-16T02:01:39;7.50;78.70
480;DHT22;226;48.606;9.096;2023-04-16T02:04:08;7.40;79.30
480;DHT22;226;48.606;9.096;2023-04-16T02:06:36;7.40;80.10
480;DHT22;226;48.606;9.096;2023-04-16T02:09:04;7.40;79.10
480;DHT22;226;48.606;9.096;2023-04-16T02:11:33;7.50;79.50
480;DHT22;226;48.606;9.096;2023-04-16T02:14:02;7.50;78.20
480;DHT22;226;48.606;9.096;2023-04-16T02:16:30;7.50;78.50
480;DHT22;226;48.606;9.096;2023-04-16T02:18:58;7.50;78.90
480;DHT22;226;48.606;9.096;2023-04-16T02:21:27;7.50;79.70
480;DHT22;226;48.606;9.096;2023-04-16T02:23:55;7.50;79.70
480;DHT22;226;48.606;9.096;2023-04-16T02:26:23;7.60;78.60
480;DHT22;226;48.606;9.096;2023-04-16T02:28:52;7.60;78.80
480;DHT22;226;48.606;9.096;2023-04-16T02:31:21;7.60;77.90
480;DHT22;226;48.606;9.096;2023-04-16T02:33:49;7.60;77.70
480;DHT22;226;48.606;9.096;2023-04-16T02:36:17;7.60;78.80
480;DHT22;226;48.606;9.096;2023-04-16T02:38:46;7.60;77.40
480;DHT22;226;48.606;9.096;2023-04-16T02:41:14;7.60;77.40
480;DHT22;226;48.606;9.096;2023-04-16T02:43:42;7.60;78.50
480;DHT22;226;48.606;9.096;2023-04-16T02:46:10;7.60;78.70
480;DHT22;226;48.606;9.096;2023-04-16T02:48:40;7.60;78.30
480;DHT22;226;48.606;9.096;2023-04-16T02:51:08;7.60;77.40
480;DHT22;226;48.606;9.096;2023-04-16T02:53:36;7.60;78.10
480;DHT22;226;48.606;9.096;2023-04-16T02:56:05;7.60;77.40
480;DHT22;226;48.606;9.096;2023-04-16T02:58:33;7.60;77.10
480;DHT22;226;48.606;9.096;2023-04-16T03:01:01;7.50;76.90
480;DHT22;226;48.606;9.096;2023-04-16T03:03:30;7.40;77.20
480;DHT22;226;48.606;9.096;2023-04-16T03:05:59;7.50;78.60
480;DHT22;226;48.606;9.096;2023-04-16T03:08:27;7.50;78.00
480;DHT22;226;48.606;9.096;2023-04-16T03:10:55;7.50;78.70
480;DHT22;226;48.606;9.096;2023-04-16T03:13:23;7.60;79.50
480;DHT22;226;48.606;9.096;2023-04-16T03:15:51;7.60;79.60
480;DHT22;226;48.606;9.096;2023-04-16T03:18:19;7.60;79.30
480;DHT22;226;48.606;9.096;2023-04-16T03:20:50;7.60;77.10
480;DHT22;226;48.606;9.096;2023-04-16T03:23:20;7.60;77.40
480;DHT22;226;48.606;9.096;2023-04-16T03:25:48;7.60;77.30
480;DHT22;226;48.606;9.096;2023-04-16T03:28:16;7.60;77.40
480;DHT22;226;48.606;9.096;2023-04-16T03:30:49;7.60;76.50
480;DHT22;226;48.606;9.096;2023-04-16T03:33:18;7.50;77.40
480;DHT22;226;48.606;9.096;2023-04-16T03:35:53;7.50;78.90
480;DHT22;226;48.606;9.096;2023-04-16T03:38:22;7.50;80.00
480;DHT22;226;48.606;9.096;2023-04-16T03:40:51;7.50;79.50
480;DHT22;226;48.606;9.096;2023-04-16T03:43:19;7.50;79.20
480;DHT22;226;48.606;9.096;2023-04-16T03:45:47;7.50;77.40
480;DHT22;226;48.606;9.096;2023-04-16T03:48:15;7.50;76.90
480;DHT22;226;48.606;9.096;2023-04-16T03:50:44;7.50;78.40
480;DHT22;226;48.606;9.096;2023-04-16T03:53:13;7.50;77.30
480;DHT22;226;48.606;9.096;2023-04-16T03:55:43;7.50;77.70
480;DHT22;226;48.606;9.096;2023-04-16T03:58:11;7.50;77.30
480;DHT22;226;48.606;9.096;2023-04-16T04:00:40;7.50;76.50
480;DHT22;226;48.606;9.096;2023-04-16T04:03:08;7.40;77.80
480;DHT22;226;48.606;9.096;2023-04-16T04:05:38;7.40;78.60
480;DHT22;226;48.606;9.096;2023-04-16T04:08:06;7.40;77.60
480;DHT22;226;48.606;9.096;2023-04-16T04:10:35;7.40;79.10
480;DHT22;226;48.606;9.096;2023-04-16T04:13:05;7.50;79.50
480;DHT22;226;48.606;9.096;2023-04-16T04:15:33;7.40;76.50
480;DHT22;226;48.606;9.096;2023-04-16T04:18:01;7.40;78.90
480;DHT22;226;48.606;9.096;2023-04-16T04:20:29;7.40;79.10
480;DHT22;226;48.606;9.096;2023-04-16T04:22:58;7.50;79.40
480;DHT22;226;48.606;9.096;2023-04-16T04:25:26;7.50;79.50
480;DHT22;226;48.606;9.096;2023-04-16T04:27:54;7.40;79.90
480;DHT22;226;48.606;9.096;2023-04-16T04:30:23;7.40;78.30
480;DHT22;226;48.606;9.096;2023-04-16T04:32:51;7.40;78.80
480;DHT22;226;48.606;9.096;2023-04-16T04:35:20;7.40;79.20
480;DHT22;226;48.606;9.096;2023-04-16T04:37:48;7.40;78.50
480;DHT22;226;48.606;9.096;2023-04-16T04:40:16;7.40;77.80
480;DHT22;226;48.606;9.096;2023-04-16T04:42:44;7.40;78.10
480;DHT22;226;48.606;9.096;2023-04-16T04:45:12;7.40;79.40
480;DHT22;226;48.606;9.096;2023-04-16T04:47:41;7.40;77.50
480;DHT22;226;48.606;9.096;2023-04-16T04:50:10;7.40;78.00
480;DHT22;226;48.606;9.096;2023-04-16T04:52:38;7.40;77.90
480;DHT22;226;48.606;9.096;2023-04-16T04:55:06;7.40;78.30
480;DHT22;226;48.606;9.096;2023-04-16T04:57:34;7.50;78.10
480;DHT22;226;48.606;9.096;2023-04-16T05:00:03;7.50;77.80
480;DHT22;226;48.606;9.096;2023-04-16T05:02:31;7.50;76.80
480;DHT22;226;48.606;9.096;2023-04-16T05:05:01;7.40;76.20
480;DHT22;226;48.606;9.096;2023-04-16T05:07:29;7.40;78.80
480;DHT22;226;48.606;9.096;2023-04-16T05:09:57;7.40;78.90
480;DHT22;226;48.606;9.096;2023-04-16T05:12:25;7.40;79.10
480;DHT22;226;48.606;9.096;2023-04-16T05:14:53;7.40;79.90
480;DHT22;226;48.606;9.096;2023-04-16T05:17:21;7.40;78.50
480;DHT22;226;48.606;9.096;2023-04-16T05:19:50;7.40;78.10
480;DHT22;226;48.606;9.096;2023-04-16T05:22:20;7.40;79.90
480;DHT22;226;48.606;9.096;2023-04-16T05:24:48;7.30;80.00
480;DHT22;226;48.606;9.096;2023-04-16T05:27:16;7.30;80.90
480;DHT22;226;48.606;9.096;2023-04-16T05:29:44;7.40;82.00
480;DHT22;226;48.606;9.096;2023-04-16T05:32:12;7.40;82.00
480;DHT22;226;48.606;9.096;2023-04-16T05:34:40;7.50;81.10
480;DHT22;226;48.606;9.096;2023-04-16T05:37:09;7.50;80.20
480;DHT22;226;48.606;9.096;2023-04-16T05:39:38;7.50;79.50
480;DHT22;226;48.606;9.096;2023-04-16T05:42:06;7.50;80.60
480;DHT22;226;48.606;9.096;2023-04-16T05:44:34;7.50;79.40
480;DHT22;226;48.606;9.096;2023-04-16T05:47:02;7.40;77.20
480;DHT22;226;48.606;9.096;2023-04-16T05:49:30;7.40;80.10
480;DHT22;226;48.606;9.096;2023-04-16T05:51:58;7.40;81.50
480;DHT22;226;48.606;9.096;2023-04-16T05:54:27;7.40;82.00
480;DHT22;226;48.606;9.096;2023-04-16T05:56:56;7.40;81.40
480;DHT22;226;48.606;9.096;2023-04-16T05:59:24;7.40;82.40
480;DHT22;226;48.606;9.096;2023-04-16T06:01:52;7.40;83.20
480;DHT22;226;48.606;9.096;2023-04-16T06:04:21;7.40;83.20
480;DHT22;226;48.606;9.096;2023-04-16T06:06:49;7.30;81.90
480;DHT22;226;48.606;9.096;2023-04-16T06:09:17;7.30;83.20
480;DHT22;226;48.606;9.096;2023-04-16T06:11:45;7.30;84.70
480;DHT22;226;48.606;9.096;2023-04-16T06:14:14;7.30;85.70
480;DHT22;226;48.606;9.096;2023-04-16T06:16:42;7.40;85.10
480;DHT22;226;48.606;9.096;2023-04-16T06:19:11;7.40;83.90
480;DHT22;226;48.606;9.096;2023-04-16T06:21:39;7.40;84.00
480;DHT22;226;48.606;9.096;2023-04-16T06:24:07;7.40;84.20
480;DHT22;226;48.606;9.096;2023-04-16T06:26:35;7.40;85.10
480;DHT22;226;48.606;9.096;2023-04-16T06:29:03;7.40;85.00
480;DHT22;226;48.606;9.096;2023-04-16T06:31:33;7.40;83.90
480;DHT22;226;48.606;9.096;2023-04-16T06:34:01;7.30;85.70
480;DHT22;226;48.606;9.096;2023-04-16T06:36:29;7.30;86.20
480;DHT22;226;48.606;9.096;2023-04-16T06:38:57;7.30;85.80
480;DHT22;226;48.606;9.096;2023-04-16T06:41:25;7.30;84.70
480;DHT22;226;48.606;9.096;2023-04-16T06:43:54;7.20;85.20
480;DHT22;226;48.606;9.096;2023-04-16T06:46:22;7.30;86.60
480;DHT22;226;48.606;9.096;2023-04-16T06:48:52;7.30;86.80
480;DHT22;226;48.606;9.096;2023-04-16T06:51:20;7.30;86.60
480;DHT22;226;48.606;9.096;2023-04-16T06:53:48;7.30;85.50
480;DHT22;226;48.606;9.096;2023-04-16T06:56:16;7.30;86.60
480;DHT22;226;48.606;9.096;2023-04-16T06:58:45;7.30;85.60
480;DHT22;226;48.606;9.096;2023-04-16T07:01:13;7.20;86.60
480;DHT22;226;48.606;9.096;2023-04-16T07:03:41;7.20;87.30
480;DHT22;226;48.606;9.096;2023-04-16T07:06:11;7.20;87.60
480;DHT22;226;48.606;9.096;2023-04-16T07:08:39;7.30;87.80
480;DHT22;226;48.606;9.096;2023-04-16T07:11:07;7.30;87.00
480;DHT22;226;48.606;9.096;2023-04-16T07:13:35;7.30;85.60
480;DHT22;226;48.606;9.096;2023-04-16T07:16:04;7.30;86.60
480;DHT22;226;48.606;9.096;2023-04-16T07:18:32;7.20;86.80
480;DHT22;226;48.606;9.096;2023-04-16T07:21:00;7.30;88.20
480;DHT22;226;48.606;9.096;2023-04-16T07:23:30;7.30;87.70
480;DHT22;226;48.606;9.096;2023-04-16T07:25:58;7.40;87.30
480;DHT22;226;48.606;9.096;2023-04-16T07:28:26;7.40;86.80
480;DHT22;226;48.606;9.096;2023-04-16T07:30:54;7.40;85.10
480;DHT22;226;48.606;9.096;2023-04-16T07:33:23;7.40;85.00
480;DHT22;226;48.606;9.096;2023-04-16T07:35:51;7.40;83.50
480;DHT22;226;48.606;9.096;2023-04-16T07:38:19;7.40;84.10
480;DHT22;226;48.606;9.096;2023-04-16T07:40:49;7.40;84.60
480;DHT22;226;48.606;9.096;2023-04-16T07:43:17;7.40;83.60
480;DHT22;226;48.606;9.096;2023-04-16T07:45:45;7.40;84.40
480;DHT22;226;48.606;9.096;2023-04-16T07:48:14;7.50;83.40
480;DHT22;226;48.606;9.096;2023-04-16T07:50:42;7.50;83.10
480;DHT22;226;48.606;9.096;2023-04-16T07:53:10;7.50;82.10
480;DHT22;226;48.606;9.096;2023-04-16T07:55:38;7.50;82.10
480;DHT22;226;48.606;9.096;2023-04-16T07:58:08;7.50;81.20
480;DHT22;226;48.606;9.096;2023-04-16T08:00:36;7.50;80.80
480;DHT22;226;48.606;9.096;2023-04-16T08:03:05;7.50;80.90
480;DHT22;226;48.606;9.096;2023-04-16T08:05:33;7.50;81.80
480;DHT22;226;48.606;9.096;2023-04-16T08:08:01;7.60;82.20
480;DHT22;226;48.606;9.096;2023-04-16T08:10:29;7.70;81.50
480;DHT22;226;48.606;9.096;2023-04-16T08:12:59;7.70;78.60
480;DHT22;226;48.606;9.096;2023-04-16T08:15:29;7.70;77.50
480;DHT22;226;48.606;9.096;2023-04-16T08:17:58;7.70;79.90
480;DHT22;226;48.606;9.096;2023-04-16T08:20:26;7.70;78.20
480;DHT22;226;48.606;9.096;2023-04-16T08:22:54;7.70;78.10
480;DHT22;226;48.606;9.096;2023-04-16T08:25:22;7.70;79.50
480;DHT22;226;48.606;9.096;2023-04-16T08:27:50;7.70;78.00
480;DHT22;226;48.606;9.096;2023-04-16T08:30:18;7.80;77.60
480;DHT22;226;48.606;9.096;2023-04-16T08:32:49;7.80;78.00
480;DHT22;226;48.606;9.096;2023-04-16T08:35:17;7.80;78.50
480;DHT22;226;48.606;9.096;2023-04-16T08:37:45;7.80;78.60
480;DHT22;226;48.606;9.096;2023-04-16T08:40:13;7.90;77.60
480;DHT22;226;48.606;9.096;2023-04-16T08:42:45;7.80;74.20
480;DHT22;226;48.606;9.096;2023-04-16T08:45:16;7.80;76.50
480;DHT22;226;48.606;9.096;2023-04-16T08:47:46;7.90;74.60
480;DHT22;226;48.606;9.096;2023-04-16T08:50:18;7.80;73.70
480;DHT22;226;48.606;9.096;2023-04-16T08:52:50;7.90;75.60
480;DHT22;226;48.606;9.096;2023-04-16T08:55:22;7.90;73.10
480;DHT22;226;48.606;9.096;2023-04-16T08:57:56;8.00;72.50
480;DHT22;226;48.606;9.096;2023-04-16T09:00:25;8.00;74.10
480;DHT22;226;48.606;9.096;2023-04-16T09:02:53;8.00;72.90
480;DHT22;226;48.606;9.096;2023-04-16T09:05:24;8.00;71.20
480;DHT22;226;48.606;9.096;2023-04-16T09:07:53;7.90;71.70
480;DHT22;226;48.606;9.096;2023-04-16T09:10:21;7.90;72.80
480;DHT22;226;48.606;9.096;2023-04-16T09:12:49;7.80;73.40
480;DHT22;226;48.606;9.096;2023-04-16T09:15:19;7.80;75.20
480;DHT22;226;48.606;9.096;2023-04-16T09:17:51;7.80;75.00
480;DHT22;226;48.606;9.096;2023-04-16T09:20:19;7.90;74.80
480;DHT22;226;48.606;9.096;2023-04-16T09:22:49;8.00;75.30
480;DHT22;226;48.606;9.096;2023-04-16T09:25:19;8.20;74.00
480;DHT22;226;48.606;9.096;2023-04-16T09:27:48;8.30;73.10
480;DHT22;226;48.606;9.096;2023-04-16T09:30:21;8.20;70.50
480;DHT22;226;48.606;9.096;2023-04-16T09:32:50;8.30;73.20
480;DHT22;226;48.606;9.096;2023-04-16T09:35:18;8.20;70.60
480;DHT22;226;48.606;9.096;2023-04-16T09:37:57;8.20;71.00
480;DHT22;226;48.606;9.096;2023-04-16T09:40:26;8.20;72.60
480;DHT22;226;48.606;9.096;2023-04-16T09:42:57;8.30;70.60
480;DHT22;226;48.606;9.096;2023-04-16T09:45:30;8.30;72.40
480;DHT22;226;48.606;9.096;2023-04-16T09:48:02;8.30;73.10
480;DHT22;226;48.606;9.096;2023-04-16T09:50:31;8.40;70.70
480;DHT22;226;48.606;9.096;2023-04-16T09:53:01;8.30;69.20
480;DHT22;226;48.606;9.096;2023-04-16T09:55:31;8.30;72.00
480;DHT22;226;48.606;9.096;2023-04-16T09:57:59;8.40;73.20
480;DHT22;226;48.606;9.096;2023-04-16T10:00:28;8.50;71.00
480;DHT22;226;48.606;9.096;2023-04-16T10:03:04;8.50;67.40
480;DHT22;226;48.606;9.096;2023-04-16T10:05:33;8.60;67.90
480;DHT22;226;48.606;9.096;2023-04-16T10:08:10;8.60;70.40
480;DHT22;226;48.606;9.096;2023-04-16T10:10:39;8.60;68.50
480;DHT22;226;48.606;9.096;2023-04-16T10:13:08;8.60;69.50
480;DHT22;226;48.606;9.096;2023-04-16T10:15:38;8.50;68.40
480;DHT22;226;48.606;9.096;2023-04-16T10:18:07;8.40;68.40
480;DHT22;226;48.606;9.096;2023-04-16T10:20:36;8.50;71.40
480;DHT22;226;48.606;9.096;2023-04-16T10:23:05;8.50;69.20
480;DHT22;226;48.606;9.096;2023-04-16T10:25:34;8.50;69.40
480;DHT22;226;48.606;9.096;2023-04-16T10:28:02;8.40;69.50
480;DHT22;226;48.606;9.096;2023-04-16T10:30:30;8.40;72.50
480;DHT22;226;48.606;9.096;2023-04-16T10:32:59;8.50;69.50
480;DHT22;226;48.606;9.096;2023-04-16T10:35:29;8.60;68.80
480;DHT22;226;48.606;9.096;2023-04-16T10:37:58;8.40;69.90
480;DHT22;226;48.606;9.096;2023-04-16T10:40:46;8.30;68.30
480;DHT22;226;48.606;9.096;2023-04-16T10:43:17;8.30;73.20
480;DHT22;226;48.606;9.096;2023-04-16T10:45:46;8.20;72.30
480;DHT22;226;48.606;9.096;2023-04-16T10:48:17;8.30;73.70
480;DHT22;226;48.606;9.096;2023-04-16T10:50:53;8.30;71.00
480;DHT22;226;48.606;9.096;2023-04-16T10:53:23;8.20;71.80
480;DHT22;226;48.606;9.096;2023-04-16T10:55:58;8.20;72.60
480;DHT22;226;48.606;9.096;2023-04-16T10:58:37;8.10;71.80
480;DHT22;226;48.606;9.096;2023-04-16T11:01:12;8.10;73.00
480;DHT22;226;48.606;9.096;2023-04-16T11:03:44;8.30;74.20
480;DHT22;226;48.606;9.096;2023-04-16T11:06:15;8.40;71.10
480;DHT22;226;48.606;9.096;2023-04-16T11:08:43;8.40;68.40
480;DHT22;226;48.606;9.096;2023-04-16T11:11:22;8.40;68.30
480;DHT22;226;48.606;9.096;2023-04-16T11:13:54;8.40;69.60
480;DHT22;226;48.606;9.096;2023-04-16T11:16:24;8.40;70.90
480;DHT22;226;48.606;9.096;2023-04-16T11:18:53;8.50;66.70
480;DHT22;226;48.606;9.096;2023-04-16T11:21:23;8.50;69.50
480;DHT22;226;48.606;9.096;2023-04-16T11:23:52;8.50;68.60
480;DHT22;226;48.606;9.096;2023-04-16T11:26:24;8.30;69.30
480;DHT22;226;48.606;9.096;2023-04-16T11:28:53;8.60;69.00
480;DHT22;226;48.606;9.096;2023-04-16T11:31:22;8.60;68.20
480;DHT22;226;48.606;9.096;2023-04-16T11:33:50;8.60;66.60
480;DHT22;226;48.606;9.096;2023-04-16T11:36:18;8.60;67.60
480;DHT22;226;48.606;9.096;2023-04-16T11:38:46;8.60;69.90
480;DHT22;226;48.606;9.096;2023-04-16T11:41:19;8.60;68.50
480;DHT22;226;48.606;9.096;2023-04-16T11:43:49;8.70;68.40
480;DHT22;226;48.606;9.096;2023-04-16T11:46:18;8.80;67.80
480;DHT22;226;48.606;9.096;2023-04-16T11:48:54;8.90;67.80
480;DHT22;226;48.606;9.096;2023-04-16T11:51:22;9.00;63.00
480;DHT22;226;48.606;9.096;2023-04-16T11:53:51;9.10;64.60
480;DHT22;226;48.606;9.096;2023-04-16T11:56:26;9.20;63.10
480;DHT22;226;48.606;9.096;2023-04-16T11:59:11;9.20;61.40
480;DHT22;226;48.606;9.096;2023-04-16T12:01:42;9.20;63.10
480;DHT22;226;48.606;9.096;2023-04-16T12:04:12;9.00;61.80
480;DHT22;226;48.606;9.096;2023-04-16T12:07:06;9.00;63.80
480;DHT22;226;48.606;9.096;2023-04-16T12:09:35;9.00;66.40
480;DHT22;226;48.606;9.096;2023-04-16T12:12:24;9.00;64.20
480;DHT22;226;48.606;9.096;2023-04-16T12:14:53;8.90;65.60
480;DHT22;226;48.606;9.096;2023-04-16T12:17:22;9.00;68.00
480;DHT22;226;48.606;9.096;2023-04-16T12:19:51;9.10;62.20
480;DHT22;226;48.606;9.096;2023-04-16T12:22:29;9.10;65.80
480;DHT22;226;48.606;9.096;2023-04-16T12:24:58;9.20;65.40
480;DHT22;226;48.606;9.096;2023-04-16T12:27:40;9.20;60.00
480;DHT22;226;48.606;9.096;2023-04-16T12:30:11;9.30;62.20
480;DHT22;226;48.606;9.096;2023-04-16T12:32:40;9.20;62.70
480;DHT22;226;48.606;9.096;2023-04-16T12:35:11;9.30;62.80
480;DHT22;226;48.606;9.096;2023-04-16T12:37:39;9.40;59.40
480;DHT22;226;48.606;9.096;2023-04-16T12:40:08;9.40;60.10
480;DHT22;226;48.606;9.096;2023-04-16T12:42:36;9.40;60.00
480;DHT22;226;48.606;9.096;2023-04-16T12:45:05;9.30;61.60
480;DHT22;226;48.606;9.096;2023-04-16T12:47:35;9.30;63.40
480;DHT22;226;48.606;9.096;2023-04-16T12:50:03;9.20;62.90
480;DHT22;226;48.606;9.096;2023-04-16T12:52:33;9.10;65.40
480;DHT22;226;48.606;9.096;2023-04-16T12:55:01;9.20;67.40
480;DHT22;226;48.606;9.096;2023-04-16T12:57:29;9.20;65.10
480;DHT22;226;48.606;9.096;2023-04-16T12:59:57;9.20;68.10
480;DHT22;226;48.606;9.096;2023-04-16T13:02:26;9.20;67.90
480;DHT22;226;48.606;9.096;2023-04-16T13:04:56;9.20;68.00
480;DHT22;226;48.606;9.096;2023-04-16T13:07:24;9.30;70.30
480;DHT22;226;48.606;9.096;2023-04-16T13:09:53;9.30;65.20
480;DHT22;226;48.606;9.096;2023-04-16T13:12:21;9.30;66.20
480;DHT22;226;48.606;9.096;2023-04-16T13:14:50;9.30;68.20
480;DHT22;226;48.606;9.096;2023-04-16T13:17:18;9.40;69.40
480;DHT22;226;48.606;9.096;2023-04-16T13:19:46;9.30;65.30
480;DHT22;226;48.606;9.096;2023-04-16T13:22:15;9.30;67.10
480;DHT22;226;48.606;9.096;2023-04-16T13:24:43;9.40;67.00
480;DHT22;226;48.606;9.096;2023-04-16T13:27:12;9.40;67.60
480;DHT22;226;48.606;9.096;2023-04-16T13:29:41;9.50;65.60
480;DHT22;226;48.606;9.096;2023-04-16T13:32:10;9.50;64.70
480;DHT22;226;48.606;9.096;2023-04-16T13:34:39;9.40;66.20
480;DHT22;226;48.606;9.096;2023-04-16T13:37:07;9.40;64.20
480;DHT22;226;48.606;9.096;2023-04-16T13:39:37;9.40;66.10
480;DHT22;226;48.606;9.096;2023-04-16T13:42:05;9.40;64.40
480;DHT22;226;48.606;9.096;2023-04-16T13:44:33;9.30;63.30
480;DHT22;226;48.606;9.096;2023-04-16T13:47:01;9.30;66.60
480;DHT22;226;48.606;9.096;2023-04-16T13:49:29;9.20;66.40
480;DHT22;226;48.606;9.096;2023-04-16T13:52:01;9.30;67.50
480;DHT22;226;48.606;9.096;2023-04-16T13:54:30;9.40;63.10
480;DHT22;226;48.606;9.096;2023-04-16T13:56:59;9.30;65.70
480;DHT22;226;48.606;9.096;2023-04-16T13:59:27;9.30;64.20
480;DHT22;226;48.606;9.096;2023-04-16T14:01:56;9.30;65.00
480;DHT22;226;48.606;9.096;2023-04-16T14:04:24;9.30;63.50
480;DHT22;226;48.606;9.096;2023-04-16T14:06:52;9.20;64.00
480;DHT22;226;48.606;9.096;2023-04-16T14:09:21;9.50;68.00
480;DHT22;226;48.606;9.096;2023-04-16T14:11:49;9.30;63.90
480;DHT22;226;48.606;9.096;2023-04-16T14:14:19;9.10;64.20
480;DHT22;226;48.606;9.096;2023-04-16T14:16:47;9.10;66.20
480;DHT22;226;48.606;9.096;2023-04-16T14:19:15;9.10;67.30
480;DHT22;226;48.606;9.096;2023-04-16T14:21:43;9.20;66.50
480;DHT22;226;48.606;9.096;2023-04-16T14:24:11;9.30;67.80
480;DHT22;226;48.606;9.096;2023-04-16T14:26:42;9.20;65.80
480;DHT22;226;48.606;9.096;2023-04-16T14:29:10;9.20;65.40
480;DHT22;226;48.606;9.096;2023-04-16T14:31:39;9.20;65.90
480;DHT22;226;48.606;9.096;2023-04-16T14:34:07;9.20;63.30
480;DHT22;226;48.606;9.096;2023-04-16T14:36:36;9.20;68.10
480;DHT22;226;48.606;9.096;2023-04-16T14:39:04;9.10;68.40
480;DHT22;226;48.606;9.096;2023-04-16T14:41:32;9.10;67.50
480;DHT22;226;48.606;9.096;2023-04-16T14:44:00;9.10;68.30
480;DHT22;226;48.606;9.096;2023-04-16T14:46:30;9.10;68.60
480;DHT22;226;48.606;9.096;2023-04-16T14:49:00;9.20;71.50
480;DHT22;226;48.606;9.096;2023-04-16T14:51:28;9.20;70.20
480;DHT22;226;48.606;9.096;2023-04-16T14:53:57;9.20;69.40
480;DHT22;226;48.606;9.096;2023-04-16T14:56:25;9.10;67.30
480;DHT22;226;48.606;9.096;2023-04-16T14:58:53;9.10;70.20
480;DHT22;226;48.606;9.096;2023-04-16T15:01:21;9.10;70.00
480;DHT22;226;48.606;9.096;2023-04-16T15:03:49;9.10;69.20
480;DHT22;226;48.606;9.096;2023-04-16T15:06:19;9.10;70.50
480;DHT22;226;48.606;9.096;2023-04-16T15:08:48;9.10;69.50
480;DHT22;226;48.606;9.096;2023-04-16T15:11:16;9.00;70.20
480;DHT22;226;48.606;9.096;2023-04-16T15:13:44;9.00;71.10
480;DHT22;226;48.606;9.096;2023-04-16T15:16:12;9.00;73.80
480;DHT22;226;48.606;9.096;2023-04-16T15:18:40;9.00;72.30
480;DHT22;226;48.606;9.096;2023-04-16T15:21:08;9.00;72.40
480;DHT22;226;48.606;9.096;2023-04-16T15:23:39;9.10;71.60
480;DHT22;226;48.606;9.096;2023-04-16T15:26:07;9.00;69.30
480;DHT22;226;48.606;9.096;2023-04-16T15:28:36;9.00;70.90
480;DHT22;226;48.606;9.096;2023-04-16T15:31:04;9.00;72.40
480;DHT22;226;48.606;9.096;2023-04-16T15:33:32;9.00;71.30
480;DHT22;226;48.606;9.096;2023-04-16T15:36:00;9.00;73.30
480;DHT22;226;48.606;9.096;2023-04-16T15:38:29;9.10;71.70
480;DHT22;226;48.606;9.096;2023-04-16T15:40:59;9.00;71.10
480;DHT22;226;48.606;9.096;2023-04-16T15:43:27;9.00;73.60
480;DHT22;226;48.606;9.096;2023-04-16T15:45:55;9.00;73.80
480;DHT22;226;48.606;9.096;2023-04-16T15:48:24;9.00;73.80
480;DHT22;226;48.606;9.096;2023-04-16T15:50:53;8.90;73.40
480;DHT22;226;48.606;9.096;2023-04-16T15:53:21;8.90;76.00
480;DHT22;226;48.606;9.096;2023-04-16T15:55:49;8.90;77.40
480;DHT22;226;48.606;9.096;2023-04-16T15:58:20;8.90;76.60
480;DHT22;226;48.606;9.096;2023-04-16T16:00:48;8.80;76.70
480;DHT22;226;48.606;9.096;2023-04-16T16:03:17;8.80;77.90
480;DHT22;226;48.606;9.096;2023-04-16T16:05:46;8.90;79.10
480;DHT22;226;48.606;9.096;2023-04-16T16:08:16;8.90;77.60
480;DHT22;226;48.606;9.096;2023-04-16T16:10:44;8.90;78.50
480;DHT22;226;48.606;9.096;2023-04-16T16:13:12;9.00;78.60
480;DHT22;226;48.606;9.096;2023-04-16T16:15:45;9.00;76.10
480;DHT22;226;48.606;9.096;2023-04-16T16:18:13;9.00;77.80
480;DHT22;226;48.606;9.096;2023-04-16T16:20:42;9.00;76.30
480;DHT22;226;48.606;9.096;2023-04-16T16:23:10;9.10;77.10
480;DHT22;226;48.606;9.096;2023-04-16T16:25:38;9.10;77.70
480;DHT22;226;48.606;9.096;2023-04-16T16:28:07;9.10;78.70
480;DHT22;226;48.606;9.096;2023-04-16T16:30:36;9.10;78.00
480;DHT22;226;48.606;9.096;2023-04-16T16:33:05;9.20;78.20
480;DHT22;226;48.606;9.096;2023-04-16T16:35:33;9.20;77.50
480;DHT22;226;48.606;9.096;2023-04-16T16:38:01;9.20;78.60
480;DHT22;226;48.606;9.096;2023-04-16T16:40:30;9.20;78.90
480;DHT22;226;48.606;9.096;2023-04-16T16:42:58;9.30;78.00
480;DHT22;226;48.606;9.096;2023-04-16T16:45:26;9.20;77.30
480;DHT22;226;48.606;9.096;2023-04-16T16:47:56;9.20;77.00
480;DHT22;226;48.606;9.096;2023-04-16T16:50:26;9.20;78.10
480;DHT22;226;48.606;9.096;2023-04-16T16:52:54;9.20;77.40
480;DHT22;226;48.606;9.096;2023-04-16T16:55:22;9.20;78.20
480;DHT22;226;48.606;9.096;2023-04-16T16:57:50;9.20;78.70
480;DHT22;226;48.606;9.096;2023-04-16T17:00:19;9.10;78.70
480;DHT22;226;48.606;9.096;2023-04-16T17:02:47;9.10;79.40